createdAt,value
2018-12-01T00:00:43.115Z,100541.77
2018-12-01T00:03:12.678Z,100547.94
2018-12-01T00:05:43.693Z,100538.05
2018-12-01T00:08:13.233Z,100545.66
2018-12-01T00:10:42.736Z,100542.74
2018-12-01T00:13:12.261Z,100547.77
2018-12-01T00:15:41.767Z,100543.77
2018-12-01T00:18:11.331Z,100551.27
2018-12-01T00:20:40.829Z,100548.57
2018-12-01T00:23:10.370Z,100550.17
2018-12-01T00:25:39.906Z,100552.14
2018-12-01T00:28:09.417Z,100553.84
2018-12-01T00:30:38.909Z,100553.61
2018-12-01T00:33:08.482Z,100558.11
2018-12-01T00:35:38.006Z,100559.31
2018-12-01T00:38:07.840Z,100561.15
2018-12-01T00:40:37.373Z,100552.66
2018-12-01T00:43:07.113Z,100564.64
2018-12-01T00:45:36.628Z,100571.17
2018-12-01T00:48:06.164Z,100566.80
2018-12-01T00:50:35.708Z,100567.80
2018-12-01T00:53:05.524Z,100558.98
2018-12-01T00:55:35.018Z,100558.98
2018-12-01T00:58:04.584Z,100558.23
2018-12-01T01:00:34.109Z,100549.41
2018-12-01T01:03:03.656Z,100542.58
2018-12-01T01:05:33.197Z,100543.08
2018-12-01T01:08:02.704Z,100544.08
2018-12-01T01:10:34.624Z,100539.39
2018-12-01T01:13:02.997Z,100541.05
2018-12-01T01:15:32.554Z,100536.86
2018-12-01T01:18:02.069Z,100527.48
2018-12-01T01:20:31.638Z,100538.77
2018-12-01T01:23:01.132Z,100526.09
2018-12-01T01:25:30.677Z,100529.08
2018-12-01T01:28:00.262Z,100523.56
2018-12-01T01:30:29.905Z,100518.73
2018-12-01T01:33:10.217Z,100522.36
2018-12-01T01:35:39.716Z,100519.87
2018-12-01T01:38:09.257Z,100513.68
2018-12-01T01:40:38.796Z,100514.38
2018-12-01T01:43:08.365Z,100506.89
2018-12-01T01:45:37.916Z,100502.06
2018-12-01T01:48:07.509Z,100510.25
2018-12-01T01:50:37.065Z,100504.36
2018-12-01T01:53:06.593Z,100507.02
2018-12-01T01:55:36.146Z,100511.32
2018-12-01T01:58:05.816Z,100512.66
2018-12-01T02:00:35.410Z,100523.63
2018-12-01T02:03:04.966Z,100527.29
2018-12-01T02:05:34.477Z,100528.95
2018-12-01T02:08:04.018Z,100534.02
2018-12-01T02:10:33.558Z,100544.16
2018-12-01T02:13:03.077Z,100544.36
2018-12-01T02:15:32.630Z,100543.95
2018-12-01T02:18:02.209Z,100544.35
2018-12-01T02:20:31.874Z,100544.41
2018-12-01T02:23:01.372Z,100549.66
2018-12-01T02:25:30.916Z,100544.03
2018-12-01T02:28:00.428Z,100550.42
2018-12-01T02:30:29.980Z,100542.77
2018-12-01T02:32:59.486Z,100541.80
2018-12-01T02:35:29.790Z,100543.83
2018-12-01T02:37:59.290Z,100550.67
2018-12-01T02:40:28.899Z,100540.35
2018-12-01T02:42:58.396Z,100546.56
2018-12-01T02:45:38.721Z,100547.27
2018-12-01T02:48:08.238Z,100545.80
2018-12-01T02:50:37.789Z,100535.33
2018-12-01T02:53:07.293Z,100540.38
2018-12-01T02:55:36.816Z,100537.78
2018-12-01T02:58:06.625Z,100535.44
2018-12-01T03:00:36.144Z,100535.80
2018-12-01T03:03:05.930Z,100534.80
2018-12-01T03:05:35.441Z,100526.81
2018-12-01T03:08:05.025Z,100522.76
2018-12-01T03:10:34.587Z,100528.45
2018-12-01T03:13:04.123Z,100527.39
2018-12-01T03:15:33.713Z,100526.28
2018-12-01T03:18:03.251Z,100368.64
2018-12-01T03:20:32.800Z,100518.02
2018-12-01T03:23:02.381Z,100524.34
2018-12-01T03:25:31.920Z,100525.67
2018-12-01T03:28:01.461Z,100523.34
2018-12-01T03:30:31.009Z,100530.50
2018-12-01T03:33:00.502Z,100527.28
2018-12-01T03:35:30.032Z,100537.11
2018-12-01T03:37:59.555Z,100539.27
2018-12-01T03:40:33.161Z,100540.97
2018-12-01T03:43:02.706Z,100536.41
2018-12-01T03:45:32.180Z,100547.57
2018-12-01T03:48:01.702Z,100549.91
2018-12-01T03:50:31.295Z,100541.74
2018-12-01T03:53:00.781Z,100540.27
2018-12-01T03:55:34.229Z,100541.05
2018-12-01T03:58:04.192Z,100545.34
2018-12-01T04:00:35.352Z,100533.36
2018-12-01T04:03:06.551Z,100536.99
2018-12-01T04:05:36.100Z,100539.52
2018-12-01T04:08:05.767Z,100542.48
2018-12-01T04:10:35.300Z,100551.17
2018-12-01T04:13:05.036Z,100546.55
2018-12-01T04:15:34.589Z,100557.39
2018-12-01T04:18:04.160Z,100557.23
2018-12-01T04:20:33.710Z,100555.26
2018-12-01T04:23:03.205Z,100548.82
2018-12-01T04:25:32.760Z,100542.99
2018-12-01T04:28:02.304Z,100546.49
2018-12-01T04:30:31.813Z,100432.00
2018-12-01T04:33:01.370Z,100548.66
2018-12-01T04:35:30.927Z,100552.66
2018-12-01T04:38:00.504Z,100555.95
2018-12-01T04:40:30.025Z,100560.12
2018-12-01T04:42:59.556Z,100560.12
2018-12-01T04:45:29.068Z,100559.25
2018-12-01T04:47:58.633Z,100562.09
2018-12-01T04:50:28.109Z,100556.89
2018-12-01T04:52:57.637Z,100559.89
2018-12-01T04:55:27.128Z,100563.89
2018-12-01T04:57:56.653Z,100558.56
2018-12-01T05:00:26.179Z,100552.27
2018-12-01T05:02:55.660Z,100559.25
2018-12-01T05:05:25.209Z,100560.59
2018-12-01T05:07:54.732Z,100554.62
2018-12-01T05:10:24.339Z,100556.31
2018-12-01T05:12:53.885Z,100560.81
2018-12-01T05:15:23.393Z,100567.61
2018-12-01T05:17:52.923Z,100566.41
2018-12-01T05:20:24.093Z,100573.58
2018-12-01T05:22:54.169Z,100568.88
2018-12-01T05:25:23.651Z,100582.84
2018-12-01T05:27:53.174Z,100579.48
2018-12-01T05:30:22.666Z,100576.75
2018-12-01T05:32:52.204Z,100574.72
2018-12-01T05:35:22.571Z,100578.39
2018-12-01T05:37:52.131Z,100578.66
2018-12-01T05:40:21.959Z,100582.45
2018-12-01T05:42:51.496Z,100589.88
2018-12-01T05:45:21.971Z,100588.22
2018-12-01T05:47:52.052Z,100586.52
2018-12-01T05:50:22.437Z,100590.18
2018-12-01T05:52:53.725Z,100601.66
2018-12-01T05:55:23.249Z,100602.56
2018-12-01T05:57:53.270Z,100606.29
2018-12-01T06:00:22.903Z,100597.17
2018-12-01T06:02:52.432Z,100595.40
2018-12-01T06:05:21.912Z,100595.46
2018-12-01T06:07:51.473Z,100601.19
2018-12-01T06:10:24.080Z,100612.20
2018-12-01T06:12:54.193Z,100613.34
2018-12-01T06:15:23.762Z,100617.17
2018-12-01T06:17:53.334Z,100617.53
2018-12-01T06:20:23.724Z,100618.56
2018-12-01T06:22:53.285Z,100616.52
2018-12-01T06:25:24.455Z,100622.22
2018-12-01T06:27:53.982Z,100621.28
2018-12-01T06:30:23.490Z,100632.43
2018-12-01T06:32:53.313Z,100636.13
2018-12-01T06:35:22.820Z,100636.87
2018-12-01T06:37:52.302Z,100633.14
2018-12-01T06:40:22.179Z,100635.92
2018-12-01T06:42:51.745Z,100642.83
2018-12-01T06:45:21.285Z,100646.19
2018-12-01T06:47:50.804Z,100642.25
2018-12-01T06:50:21.657Z,100643.64
2018-12-01T06:52:51.964Z,100643.36
2018-12-01T06:55:22.046Z,100645.77
2018-12-01T06:57:51.580Z,100645.13
2018-12-01T07:00:23.302Z,100648.91
2018-12-01T07:02:53.576Z,100654.77
2018-12-01T07:05:23.109Z,100656.65
2018-12-01T07:07:52.602Z,100664.84
2018-12-01T07:10:22.898Z,100666.48
2018-12-01T07:13:01.393Z,100667.69
2018-12-01T07:15:34.237Z,100668.70
2018-12-01T07:18:13.474Z,100663.38
2018-12-01T07:20:43.073Z,100666.37
2018-12-01T07:23:12.588Z,100667.06
2018-12-01T07:25:42.103Z,100669.45
2018-12-01T07:28:11.721Z,100671.47
2018-12-01T07:30:41.355Z,100662.52
2018-12-01T07:33:10.836Z,100669.92
2018-12-01T07:35:40.404Z,100662.23
2018-12-01T07:38:09.924Z,100669.59
2018-12-01T07:40:39.462Z,100679.29
2018-12-01T07:43:08.955Z,100687.77
2018-12-01T07:45:38.513Z,100687.67
2018-12-01T07:48:08.073Z,100689.20
2018-12-01T07:50:37.632Z,100683.22
2018-12-01T07:53:07.504Z,100678.52
2018-12-01T07:55:37.033Z,100685.16
2018-12-01T07:58:06.552Z,100679.36
2018-12-01T08:00:36.100Z,100681.06
2018-12-01T08:03:05.732Z,100680.97
2018-12-01T08:05:35.269Z,100681.70
2018-12-01T08:08:04.813Z,100678.48
2018-12-01T08:10:34.338Z,100678.02
2018-12-01T08:13:03.919Z,100671.22
2018-12-01T08:15:33.405Z,100669.78
2018-12-01T08:18:02.933Z,100668.22
2018-12-01T08:20:32.484Z,100666.39
2018-12-01T08:23:02.080Z,100667.02
2018-12-01T08:25:31.564Z,100670.24
2018-12-01T08:28:01.119Z,100656.45
2018-12-01T08:30:32.093Z,100660.18
2018-12-01T08:33:01.605Z,100657.22
2018-12-01T08:35:31.361Z,100654.55
2018-12-01T08:38:00.854Z,100653.86
2018-12-01T08:40:31.346Z,100649.20
2018-12-01T08:43:00.836Z,100656.28
2018-12-01T08:45:30.369Z,100651.33
2018-12-01T08:47:59.850Z,100655.44
2018-12-01T08:50:29.401Z,100654.67
2018-12-01T08:52:58.918Z,100654.91
2018-12-01T08:55:28.457Z,100647.95
2018-12-01T08:57:58.030Z,100649.02
2018-12-01T09:00:33.228Z,100651.36
2018-12-01T09:03:08.592Z,100648.86
2018-12-01T09:05:38.149Z,100642.02
2018-12-01T09:08:07.670Z,100632.38
2018-12-01T09:10:37.253Z,100636.89
2018-12-01T09:13:06.804Z,100621.73
2018-12-01T09:15:37.368Z,100626.70
2018-12-01T09:18:07.050Z,100624.36
2018-12-01T09:20:36.540Z,100629.38
2018-12-01T09:23:06.370Z,100619.35
2018-12-01T09:25:35.856Z,100619.52
2018-12-01T09:28:05.725Z,100623.41
2018-12-01T09:30:36.232Z,100618.38
2018-12-01T09:33:06.143Z,100613.70
2018-12-01T09:35:35.796Z,100608.86
2018-12-01T09:38:05.375Z,100619.09
2018-12-01T09:40:35.516Z,100615.08
2018-12-01T09:43:05.212Z,100611.91
2018-12-01T09:45:34.744Z,100604.55
2018-12-01T09:48:04.267Z,100602.02
2018-12-01T09:50:33.816Z,100584.77
2018-12-01T09:53:03.326Z,100590.00
2018-12-01T09:55:33.117Z,100583.84
2018-12-01T09:58:02.651Z,100589.70
2018-12-01T10:00:33.049Z,100590.39
2018-12-01T10:03:04.822Z,100593.85
2018-12-01T10:05:34.660Z,100584.69
2018-12-01T10:08:04.233Z,100592.39
2018-12-01T10:10:33.794Z,100585.22
2018-12-01T10:13:03.340Z,100588.08
2018-12-01T10:15:35.236Z,100587.78
2018-12-01T10:18:05.314Z,100585.44
2018-12-01T10:20:35.513Z,100586.77
2018-12-01T10:23:09.973Z,100576.72
2018-12-01T10:25:39.575Z,100587.80
2018-12-01T10:28:10.371Z,100583.10
2018-12-01T10:30:39.881Z,100586.61
2018-12-01T10:33:09.440Z,100584.45
2018-12-01T10:35:38.989Z,100583.11
2018-12-01T10:38:11.036Z,100582.25
2018-12-01T10:40:40.562Z,100576.42
2018-12-01T10:43:10.201Z,100583.44
2018-12-01T10:45:39.741Z,100578.75
2018-12-01T10:48:10.061Z,100584.27
2018-12-01T10:50:39.809Z,100577.73
2018-12-01T10:53:09.374Z,100581.09
2018-12-01T10:55:38.952Z,100572.73
2018-12-01T10:58:11.609Z,100574.73
2018-12-01T11:00:47.135Z,100576.40
2018-12-01T11:03:21.651Z,100572.22
2018-12-01T11:05:51.384Z,100569.85
2018-12-01T11:08:21.041Z,100567.68
2018-12-01T11:10:55.261Z,100563.66
2018-12-01T11:13:20.136Z,100564.68
2018-12-01T11:15:49.705Z,100562.83
2018-12-01T11:18:19.278Z,100569.37
2018-12-01T11:20:48.874Z,100570.56
2018-12-01T11:23:18.618Z,100568.36
2018-12-01T11:25:48.183Z,100560.99
2018-12-01T11:28:17.756Z,100549.64
2018-12-01T11:30:47.293Z,100543.61
2018-12-01T11:33:16.852Z,100538.56
2018-12-01T11:35:46.470Z,100537.23
2018-12-01T11:38:16.041Z,100536.71
2018-12-01T11:40:45.737Z,100533.87
2018-12-01T11:43:15.566Z,100531.00
2018-12-01T11:45:45.158Z,100533.86
2018-12-01T11:48:14.712Z,100529.48
2018-12-01T11:50:44.292Z,100528.49
2018-12-01T11:53:13.817Z,100519.43
2018-12-01T11:55:43.380Z,100520.09
2018-12-01T11:58:12.930Z,100520.76
2018-12-01T12:00:42.433Z,100517.25
2018-12-01T12:03:12.026Z,100514.57
2018-12-01T12:05:41.605Z,100511.37
2018-12-01T12:08:26.316Z,100505.86
2018-12-01T12:10:55.980Z,100510.19
2018-12-01T12:13:27.258Z,100508.02
2018-12-01T12:15:57.040Z,100514.72
2018-12-01T12:18:26.644Z,100509.05
2018-12-01T12:20:56.160Z,100507.00
2018-12-01T12:23:25.709Z,100512.36
2018-12-01T12:25:55.320Z,100513.90
2018-12-01T12:28:24.873Z,100519.42
2018-12-01T12:30:54.506Z,100520.41
2018-12-01T12:33:24.172Z,100520.09
2018-12-01T12:35:53.746Z,100525.45
2018-12-01T12:38:23.309Z,100529.46
2018-12-01T12:40:52.861Z,100527.09
2018-12-01T12:43:22.459Z,100525.42
2018-12-01T12:45:51.959Z,100529.42
2018-12-01T12:48:21.482Z,100520.35
2018-12-01T12:50:53.271Z,100525.37
2018-12-01T12:53:20.552Z,100525.72
2018-12-01T12:55:50.130Z,100518.67
2018-12-01T12:58:19.693Z,100524.34
2018-12-01T13:00:49.199Z,100523.83
2018-12-01T13:03:18.742Z,100514.94
2018-12-01T13:05:48.613Z,100511.56
2018-12-01T13:08:19.082Z,100512.72
2018-12-01T13:10:48.707Z,100512.87
2018-12-01T13:13:18.277Z,100514.19
2018-12-01T13:15:47.786Z,100507.98
2018-12-01T13:18:17.333Z,100511.13
2018-12-01T13:20:47.677Z,100510.12
2018-12-01T13:23:17.216Z,100510.12
2018-12-01T13:25:46.738Z,100511.30
2018-12-01T13:28:19.788Z,100512.66
2018-12-01T13:30:52.543Z,100515.15
2018-12-01T13:33:22.166Z,100511.80
2018-12-01T13:35:51.707Z,100514.51
2018-12-01T13:38:21.308Z,100517.55
2018-12-01T13:40:50.877Z,100516.91
2018-12-01T13:43:20.433Z,100521.27
2018-12-01T13:45:49.977Z,100517.45
2018-12-01T13:48:19.619Z,100514.94
2018-12-01T13:50:49.178Z,100510.92
2018-12-01T13:53:18.850Z,100519.34
2018-12-01T13:55:48.356Z,100521.35
2018-12-01T13:58:17.904Z,100528.07
2018-12-01T14:00:47.446Z,100522.55
2018-12-01T14:03:17.001Z,100522.56
2018-12-01T14:05:46.569Z,100522.58
2018-12-01T14:08:16.094Z,100520.89
2018-12-01T14:10:49.157Z,100525.44
2018-12-01T14:13:18.672Z,100524.42
2018-12-01T14:15:48.240Z,100524.78
2018-12-01T14:18:17.800Z,100520.45
2018-12-01T14:20:47.381Z,100529.64
2018-12-01T14:23:16.962Z,100531.50
2018-12-01T14:25:46.485Z,100525.16
2018-12-01T14:28:16.032Z,100530.68
2018-12-01T14:30:45.522Z,100533.53
2018-12-01T14:33:16.343Z,100542.08
2018-12-01T14:35:44.633Z,100544.76
2018-12-01T14:38:15.367Z,100545.27
2018-12-01T14:40:46.939Z,100543.09
2018-12-01T14:43:16.558Z,100537.73
2018-12-01T14:45:47.391Z,100539.91
2018-12-01T14:48:16.897Z,100535.06
2018-12-01T14:50:48.690Z,100539.23
2018-12-01T14:53:16.964Z,100532.89
2018-12-01T14:55:46.534Z,100532.72
2018-12-01T14:58:16.068Z,100531.86
2018-12-01T15:00:45.577Z,100532.21
2018-12-01T15:03:15.141Z,100526.69
2018-12-01T15:05:44.641Z,100522.84
2018-12-01T15:08:14.229Z,100524.68
2018-12-01T15:10:43.717Z,100520.83
2018-12-01T15:13:13.284Z,100523.34
2018-12-01T15:15:42.819Z,100523.83
2018-12-01T15:18:12.373Z,100528.03
2018-12-01T15:20:41.868Z,100531.69
2018-12-01T15:23:11.431Z,100530.19
2018-12-01T15:25:40.948Z,100523.14
2018-12-01T15:28:10.532Z,100539.88
2018-12-01T15:30:40.074Z,100544.55
2018-12-01T15:33:12.503Z,100548.25
2018-12-01T15:35:42.947Z,100564.98
2018-12-01T15:38:12.594Z,100563.48
2018-12-01T15:40:44.527Z,100558.63
2018-12-01T15:43:14.081Z,100559.61
2018-12-01T15:45:43.656Z,100560.28
2018-12-01T15:48:13.348Z,100560.27
2018-12-01T15:50:42.920Z,100563.29
2018-12-01T15:53:13.547Z,100564.94
2018-12-01T15:55:43.360Z,100564.27
2018-12-01T15:58:12.990Z,100569.28
2018-12-01T16:00:43.242Z,100571.27
2018-12-01T16:03:12.789Z,100572.44
2018-12-01T16:05:42.439Z,100562.86
2018-12-01T16:08:12.321Z,100583.27
2018-12-01T16:10:41.897Z,100576.55
2018-12-01T16:13:14.732Z,100582.05
2018-12-01T16:15:46.395Z,100582.39
2018-12-01T16:18:16.002Z,100588.25
2018-12-01T16:20:45.536Z,100587.72
2018-12-01T16:23:15.127Z,100586.36
2018-12-01T16:25:44.655Z,100587.17
2018-12-01T16:28:14.189Z,100584.84
2018-12-01T16:30:44.972Z,100583.48
2018-12-01T16:33:18.928Z,100585.47
2018-12-01T16:35:48.503Z,100584.94
2018-12-01T16:38:21.530Z,100581.59
2018-12-01T16:40:54.890Z,100566.52
2018-12-01T16:43:24.689Z,100582.07
2018-12-01T16:45:54.445Z,100585.55
2018-12-01T16:48:23.936Z,100588.73
2018-12-01T16:50:53.556Z,100588.41
2018-12-01T16:53:23.532Z,100587.73
2018-12-01T16:55:53.046Z,100591.88
2018-12-01T16:58:22.621Z,100590.55
2018-12-01T17:00:52.153Z,100586.16
2018-12-01T17:03:21.729Z,100596.37
2018-12-01T17:05:53.714Z,100593.84
2018-12-01T17:08:23.282Z,100592.81
2018-12-01T17:10:52.887Z,100589.64
2018-12-01T17:13:22.453Z,100592.09
2018-12-01T17:15:52.030Z,100590.94
2018-12-01T17:18:21.625Z,100593.77
2018-12-01T17:20:51.136Z,100593.08
2018-12-01T17:23:20.713Z,100596.77
2018-12-01T17:25:50.296Z,100594.74
2018-12-01T17:28:20.566Z,100603.56
2018-12-01T17:30:50.400Z,100603.20
2018-12-01T17:33:20.098Z,100605.52
2018-12-01T17:35:49.589Z,100610.53
2018-12-01T17:38:20.392Z,100610.36
2018-12-01T17:41:00.722Z,100615.05
2018-12-01T17:43:36.063Z,100611.19
2018-12-01T17:46:05.897Z,100606.86
2018-12-01T17:48:35.478Z,100604.69
2018-12-01T17:51:05.137Z,100613.35
2018-12-01T17:53:34.658Z,100613.50
2018-12-01T17:56:04.294Z,100617.66
2018-12-01T17:58:33.881Z,100613.47
2018-12-01T18:01:03.429Z,100620.29
2018-12-01T18:03:32.923Z,100617.14
2018-12-01T18:06:02.629Z,100622.12
2018-12-01T18:08:32.192Z,100619.97
2018-12-01T18:11:01.689Z,100615.59
2018-12-01T18:13:31.168Z,100616.46
2018-12-01T18:16:00.721Z,100621.45
2018-12-01T18:18:30.213Z,100608.09
2018-12-01T18:20:59.764Z,100611.27
2018-12-01T18:23:29.260Z,100464.17
2018-12-01T18:25:58.847Z,100607.77
2018-12-01T18:28:31.313Z,100609.09
2018-12-01T18:31:00.854Z,100613.94
2018-12-01T18:33:34.355Z,100604.38
2018-12-01T18:36:03.885Z,100602.53
2018-12-01T18:38:33.432Z,100611.41
2018-12-01T18:41:02.930Z,100604.88
2018-12-01T18:43:32.486Z,100605.38
2018-12-01T18:46:03.368Z,100610.58
2018-12-01T18:48:32.909Z,100609.25
2018-12-01T18:51:02.392Z,100614.73
2018-12-01T18:53:31.924Z,100612.89
2018-12-01T18:56:01.427Z,100615.56
2018-12-01T18:58:30.973Z,100614.73
2018-12-01T19:01:00.576Z,100607.52
2018-12-01T19:03:32.653Z,100611.38
2018-12-01T19:06:02.150Z,100480.44
2018-12-01T19:08:31.672Z,100609.71
2018-12-01T19:11:01.219Z,100603.03
2018-12-01T19:13:30.701Z,100598.63
2018-12-01T19:16:00.247Z,100607.69
2018-12-01T19:18:29.781Z,100594.81
2018-12-01T19:20:59.324Z,100607.69
2018-12-01T19:23:28.826Z,100606.00
2018-12-01T19:25:58.405Z,100606.00
2018-12-01T19:28:27.945Z,100610.00
2018-12-01T19:30:57.461Z,100610.15
2018-12-01T19:33:26.987Z,100612.59
2018-12-01T19:35:56.520Z,100617.47
2018-12-01T19:38:28.012Z,100625.80
2018-12-01T19:40:58.768Z,100617.11
2018-12-01T19:43:28.325Z,100622.95
2018-12-01T19:45:57.889Z,100623.09
2018-12-01T19:48:27.434Z,100627.25
2018-12-01T19:50:57.052Z,100624.39
2018-12-01T19:53:26.550Z,100628.22
2018-12-01T19:55:56.109Z,100614.03
2018-12-01T19:58:27.912Z,100624.50
2018-12-01T20:00:58.309Z,100618.80
2018-12-01T20:03:30.029Z,100625.32
2018-12-01T20:05:59.604Z,100621.46
2018-12-01T20:08:29.146Z,100613.31
2018-12-01T20:11:02.370Z,100613.13
2018-12-01T20:13:37.649Z,100614.14
2018-12-01T20:16:22.312Z,100611.80
2018-12-01T20:18:52.345Z,100611.33
2018-12-01T20:21:22.339Z,100606.96
2018-12-01T20:23:51.894Z,100607.47
2018-12-01T20:26:21.420Z,100608.30
2018-12-01T20:28:51.068Z,100615.98
2018-12-01T20:31:20.616Z,100624.81
2018-12-01T20:33:51.064Z,100612.80
2018-12-01T20:36:23.384Z,100613.64
2018-12-01T20:39:33.957Z,100611.11
2018-12-01T20:42:03.469Z,100614.78
2018-12-01T20:44:33.003Z,100611.42
2018-12-01T20:47:02.534Z,100608.07
2018-12-01T20:49:32.072Z,100614.42
2018-12-01T20:52:01.581Z,100612.39
2018-12-01T20:54:37.707Z,100609.36
2018-12-01T20:57:17.502Z,100609.51
2018-12-01T20:59:47.009Z,100616.69
2018-12-01T21:02:16.540Z,100612.82
2018-12-01T21:04:46.064Z,100619.17
2018-12-01T21:07:15.574Z,100615.99
2018-12-01T21:09:45.109Z,100615.81
2018-12-01T21:12:15.223Z,100617.28
2018-12-01T21:14:44.753Z,100610.76
2018-12-01T21:17:14.281Z,100617.09
2018-12-01T21:19:43.794Z,100612.91
2018-12-01T21:22:13.328Z,100611.86
2018-12-01T21:24:42.817Z,100608.72
2018-12-01T21:27:12.341Z,100607.17
2018-12-01T21:29:41.886Z,100608.67
2018-12-01T21:32:11.392Z,100615.48
2018-12-01T21:34:40.909Z,100614.84
2018-12-01T21:37:10.407Z,100608.77
2018-12-01T21:39:39.945Z,100611.08
2018-12-01T21:42:09.446Z,100603.39
2018-12-01T21:44:38.985Z,100608.23
2018-12-01T21:47:09.350Z,100609.41
2018-12-01T21:49:38.864Z,100609.92
2018-12-01T21:52:08.944Z,100602.70
2018-12-01T21:54:38.465Z,100605.77
2018-12-01T21:57:07.977Z,100608.30
2018-12-01T21:59:37.508Z,100619.99
2018-12-01T22:02:07.956Z,100616.55
2018-12-01T22:04:37.524Z,100623.54
2018-12-01T22:07:07.053Z,100627.41
2018-12-01T22:09:36.577Z,100628.09
2018-12-01T22:12:06.351Z,100627.45
2018-12-01T22:14:35.844Z,100635.78
2018-12-01T22:17:05.672Z,100628.14
2018-12-01T22:19:35.148Z,100629.47
2018-12-01T22:22:04.793Z,100628.97
2018-12-01T22:24:34.300Z,100627.00
2018-12-01T22:27:03.837Z,100618.16
2018-12-01T22:29:33.336Z,100620.83
2018-12-01T22:32:02.885Z,100614.98
2018-12-01T22:34:32.477Z,100611.67
2018-12-01T22:37:02.060Z,100611.67
2018-12-01T22:39:31.552Z,100613.01
2018-12-01T22:42:01.117Z,100617.84
2018-12-01T22:44:30.636Z,100613.84
2018-12-01T22:47:00.252Z,100612.51
2018-12-01T22:49:29.746Z,100614.20
2018-12-01T22:51:59.292Z,100612.51
2018-12-01T22:54:28.786Z,100601.83
2018-12-01T22:56:58.318Z,100602.84
2018-12-01T22:59:27.873Z,100601.83
2018-12-01T23:01:57.440Z,100610.84
2018-12-01T23:04:26.969Z,100597.78
2018-12-01T23:06:56.524Z,100609.51
2018-12-01T23:09:26.062Z,100610.84
2018-12-01T23:11:56.744Z,100605.50
2018-12-01T23:14:25.137Z,100599.81
2018-12-01T23:16:54.655Z,100600.17
2018-12-01T23:19:24.197Z,100599.67
2018-12-01T23:21:53.696Z,100596.49
2018-12-01T23:24:23.225Z,100590.69
2018-12-01T23:26:52.752Z,100593.69
2018-12-01T23:29:22.296Z,100594.69
2018-12-01T23:31:51.800Z,100591.66
2018-12-01T23:34:21.337Z,100596.49
2018-12-01T23:36:50.889Z,100594.33
2018-12-01T23:39:20.408Z,100595.16
2018-12-01T23:41:49.968Z,100595.16
2018-12-01T23:44:33.909Z,100594.19
2018-12-01T23:47:03.437Z,100590.83
2018-12-01T23:49:32.957Z,100595.80
2018-12-01T23:52:02.505Z,100609.15
2018-12-01T23:54:32.008Z,100603.81
2018-12-01T23:57:01.533Z,100604.81
2018-12-01T23:59:31.032Z,100604.81
